Time;durP1;ratioP1;P1;durP2;ratioP2;P2;SDS_P1;SDS_P2;PMS_P1;PMS_P2;Temp;Humidity;BMP_temperature;BMP_pressure;BME280_temperature;BME280_humidity;BME280_pressure;Samples;Min_cycle;Max_cycle;Signal;HPM_P1;HPM_P2
2022/11/09 00:02:17;;;;;;;4.40;1.53;;;13.70;99.90;;;;;;5040683;28;20444;-88
2022/11/09 00:04:43;;;;;;;2.47;1.40;;;13.60;99.90;;;;;;5033473;28;20265;-88
2022/11/09 00:07:09;;;;;;;2.27;1.90;;;13.60;99.90;;;;;;5001962;28;20194;-87
2022/11/09 00:09:34;;;;;;;2.03;1.60;;;13.60;99.90;;;;;;5048846;28;20233;-87
2022/11/09 00:12:03;;;;;;;1.47;1.27;;;13.60;99.90;;;;;;5051886;28;20181;-88
2022/11/09 00:14:29;;;;;;;3.10;1.90;;;13.60;99.90;;;;;;5051344;28;20188;-87
2022/11/09 00:16:55;;;;;;;3.37;1.93;;;13.60;99.90;;;;;;5051555;28;20512;-87
2022/11/09 00:19:21;;;;;;;3.33;1.23;;;13.60;99.90;;;;;;5035436;28;20970;-88
2022/11/09 00:21:47;;;;;;;1.70;1.37;;;13.60;99.90;;;;;;5035126;28;20439;-86
2022/11/09 00:24:13;;;;;;;2.83;1.40;;;13.60;99.90;;;;;;5035526;28;20407;-87
2022/11/09 00:26:38;;;;;;;1.27;1.10;;;13.60;99.90;;;;;;5034530;28;20197;-84
2022/11/09 00:29:04;;;;;;;4.13;1.90;;;13.60;99.90;;;;;;5047224;28;20286;-83
2022/11/09 00:31:29;;;;;;;1.83;1.60;;;13.60;99.90;;;;;;5047127;28;20181;-83
2022/11/09 00:33:56;;;;;;;2.13;1.50;;;13.70;99.90;;;;;;5034297;28;20586;-83
2022/11/09 00:36:23;;;;;;;3.20;1.27;;;13.70;99.90;;;;;;5051613;28;20268;-83
2022/11/09 00:38:50;;;;;;;2.30;1.57;;;13.80;99.90;;;;;;5052899;28;20412;-83
2022/11/09 00:41:16;;;;;;;2.57;1.87;;;13.80;99.90;;;;;;5053189;28;20454;-83
2022/11/09 00:43:42;;;;;;;3.43;1.37;;;13.80;99.90;;;;;;5051490;28;21049;-83
2022/11/09 00:46:08;;;;;;;2.03;1.00;;;13.80;99.90;;;;;;5018741;28;20499;-83
2022/11/09 00:48:34;;;;;;;3.63;1.40;;;13.90;99.90;;;;;;5051574;28;20220;-84
2022/11/09 00:51:00;;;;;;;1.63;1.30;;;14.00;99.90;;;;;;5035117;28;20189;-83
2022/11/09 00:53:26;;;;;;;2.37;1.57;;;14.00;99.90;;;;;;5051889;28;20766;-83
2022/11/09 00:56:03;;;;;;;3.07;1.80;;;14.10;99.90;;;;;;5051416;28;20507;-83
2022/11/09 00:58:33;;;;;;;2.00;1.50;;;14.10;99.90;;;;;;5053126;28;20775;-83
2022/11/09 01:01:04;;;;;;;2.13;1.77;;;14.10;99.90;;;;;;5053834;28;20419;-83
2022/11/09 01:03:30;;;;;;;1.43;1.03;;;14.10;99.90;;;;;;5055716;28;20446;-83
2022/11/09 01:05:58;;;;;;;2.43;1.10;;;14.10;99.90;;;;;;5056375;28;20498;-83
2022/11/09 01:08:24;;;;;;;1.43;1.30;;;14.20;99.90;;;;;;5055163;28;20209;-83
2022/11/09 01:10:50;;;;;;;4.07;1.53;;;14.20;99.90;;;;;;5054935;28;20411;-83
2022/11/09 01:13:17;;;;;;;1.60;1.20;;;14.20;99.90;;;;;;5055304;28;20424;-83
2022/11/09 01:15:46;;;;;;;2.60;1.10;;;14.20;99.90;;;;;;5038444;28;20247;-83
2022/11/09 01:18:12;;;;;;;3.20;1.40;;;14.20;99.90;;;;;;5055095;28;20461;-83
2022/11/09 01:20:40;;;;;;;6.17;2.03;;;14.20;99.90;;;;;;5055915;28;20426;-83
2022/11/09 01:23:06;;;;;;;6.07;1.27;;;14.20;99.90;;;;;;5055043;28;20474;-83
2022/11/09 01:25:32;;;;;;;5.23;2.10;;;14.30;99.90;;;;;;5038627;28;20431;-83
2022/11/09 01:27:58;;;;;;;3.23;1.87;;;14.20;99.90;;;;;;5055673;28;20571;-83
2022/11/09 01:30:24;;;;;;;3.10;1.67;;;14.10;99.90;;;;;;5055062;28;20200;-83
2022/11/09 01:32:49;;;;;;;6.20;1.63;;;14.10;99.90;;;;;;5037869;28;20424;-84
2022/11/09 01:35:15;;;;;;;4.93;1.67;;;14.00;99.90;;;;;;5054362;28;20197;-83
2022/11/09 01:37:41;;;;;;;2.40;1.40;;;14.00;99.90;;;;;;5037873;28;20193;-83
2022/11/09 01:40:07;;;;;;;3.27;1.40;;;14.00;99.90;;;;;;5038142;28;20177;-83
2022/11/09 01:42:35;;;;;;;2.90;1.70;;;14.00;99.90;;;;;;5054818;28;20189;-83
2022/11/09 01:45:28;;;;;;;2.43;1.80;;;13.90;99.90;;;;;;5037347;28;20476;-83
2022/11/09 01:48:08;;;;;;;3.40;1.10;;;13.90;99.90;;;;;;5045192;28;20521;-83
2022/11/09 01:51:00;;;;;;;6.70;2.23;;;13.90;99.90;;;;;;5054695;28;20534;-83
2022/11/09 01:53:33;;;;;;;4.83;1.63;;;14.00;99.90;;;;;;5045475;28;20424;-83
2022/11/09 01:56:03;;;;;;;4.10;1.50;;;13.90;99.90;;;;;;5055440;28;20408;-83
2022/11/09 01:58:45;;;;;;;2.50;1.43;;;13.90;99.90;;;;;;5054409;28;20423;-83
2022/11/09 02:01:12;;;;;;;4.63;1.57;;;13.90;99.90;;;;;;5054296;28;20447;-83
2022/11/09 02:03:45;;;;;;;3.50;1.30;;;13.90;99.90;;;;;;5053860;28;20481;-83
2022/11/09 02:06:14;;;;;;;5.10;1.67;;;13.90;99.90;;;;;;5055523;28;20389;-83
2022/11/09 02:08:40;;;;;;;2.70;1.00;;;13.90;99.90;;;;;;5054122;28;20451;-84
2022/11/09 02:11:16;;;;;;;1.67;1.20;;;13.80;99.90;;;;;;5054185;28;20400;-83
2022/11/09 02:13:52;;;;;;;2.50;1.07;;;13.90;99.90;;;;;;5053461;28;20420;-83
2022/11/09 02:16:18;;;;;;;6.70;1.40;;;13.90;99.90;;;;;;5054118;28;20412;-83
2022/11/09 02:18:53;;;;;;;4.80;1.17;;;13.90;99.90;;;;;;5053823;28;20428;-83
2022/11/09 02:21:20;;;;;;;1.63;1.20;;;13.90;99.90;;;;;;5055092;28;20430;-83
2022/11/09 02:23:46;;;;;;;5.60;1.33;;;13.90;99.90;;;;;;5053515;28;20414;-83
2022/11/09 02:26:18;;;;;;;3.67;1.50;;;13.80;99.90;;;;;;5053704;28;20503;-83
2022/11/09 02:28:44;;;;;;;4.07;1.47;;;13.80;99.90;;;;;;5054808;28;20471;-83
2022/11/09 02:31:13;;;;;;;3.37;1.30;;;13.80;99.90;;;;;;5020916;28;20916;-83
2022/11/09 02:33:58;;;;;;;2.20;1.37;;;13.80;99.90;;;;;;5055171;28;21003;-83
2022/11/09 02:36:24;;;;;;;1.97;1.13;;;13.70;99.90;;;;;;5054956;28;20479;-82
2022/11/09 02:38:53;;;;;;;4.40;1.10;;;13.70;99.90;;;;;;5053148;28;20514;-83
2022/11/09 02:41:20;;;;;;;1.83;1.30;;;13.70;99.90;;;;;;5053405;28;20424;-83
2022/11/09 02:43:46;;;;;;;2.30;1.43;;;13.70;99.90;;;;;;5053328;28;20436;-83
2022/11/09 02:46:12;;;;;;;5.00;1.50;;;13.70;99.90;;;;;;5053271;28;20922;-83
2022/11/09 02:48:37;;;;;;;2.80;1.20;;;13.70;99.90;;;;;;5053493;28;20470;-83
2022/11/09 02:51:03;;;;;;;3.13;0.97;;;13.70;99.90;;;;;;5053241;28;20177;-83
2022/11/09 02:53:28;;;;;;;6.00;1.67;;;13.70;99.90;;;;;;5036774;28;20182;-83
2022/11/09 02:55:54;;;;;;;3.23;1.27;;;13.70;99.90;;;;;;5053396;28;20176;-83
2022/11/09 02:58:19;;;;;;;2.97;1.33;;;13.70;99.90;;;;;;5020381;28;20185;-83
2022/11/09 03:00:45;;;;;;;3.47;1.20;;;13.70;99.90;;;;;;5020119;28;20185;-83
2022/11/09 03:03:11;;;;;;;3.03;1.57;;;13.70;99.90;;;;;;5053460;28;20182;-83
2022/11/09 03:05:36;;;;;;;3.43;1.13;;;13.70;99.90;;;;;;5054722;28;20200;-83
2022/11/09 03:08:02;;;;;;;3.93;1.40;;;13.70;99.90;;;;;;5053224;28;20693;-83
2022/11/09 03:10:28;;;;;;;5.37;1.27;;;13.60;99.90;;;;;;5054398;28;20185;-83
2022/11/09 03:12:54;;;;;;;15.40;2.20;;;13.60;99.90;;;;;;5052810;28;20178;-83
2022/11/09 03:15:19;;;;;;;3.83;1.40;;;13.60;99.90;;;;;;5054392;28;20185;-83
2022/11/09 03:17:45;;;;;;;3.57;1.60;;;13.60;99.90;;;;;;5035858;28;20463;-83
2022/11/09 03:20:12;;;;;;;5.27;1.93;;;13.60;99.90;;;;;;5054487;28;20252;-83
2022/11/09 03:22:37;;;;;;;2.77;1.63;;;13.50;99.90;;;;;;5052542;28;20503;-83
2022/11/09 03:25:03;;;;;;;3.43;1.50;;;13.50;99.90;;;;;;5052515;28;20813;-83
2022/11/09 03:27:29;;;;;;;1.30;1.00;;;13.50;99.90;;;;;;5052743;28;20193;-83
2022/11/09 03:29:55;;;;;;;2.27;1.00;;;13.50;99.90;;;;;;5052727;28;20412;-83
2022/11/09 03:32:20;;;;;;;2.80;1.30;;;13.50;99.90;;;;;;5036329;28;20185;-83
2022/11/09 03:34:46;;;;;;;4.13;1.00;;;13.50;99.90;;;;;;5035809;28;20200;-84
2022/11/09 03:37:11;;;;;;;4.20;1.30;;;13.50;99.90;;;;;;5036268;28;20674;-83
2022/11/09 03:39:37;;;;;;;4.37;1.30;;;13.50;99.90;;;;;;5053526;28;20219;-83
2022/11/09 03:42:02;;;;;;;6.10;1.70;;;13.50;99.90;;;;;;5035974;28;20174;-83
2022/11/09 03:44:28;;;;;;;4.07;1.23;;;13.50;99.90;;;;;;5035824;28;20672;-83
2022/11/09 03:46:54;;;;;;;4.33;1.23;;;13.50;99.90;;;;;;5018829;28;20189;-83
2022/11/09 03:49:19;;;;;;;4.60;1.67;;;13.50;99.90;;;;;;5035708;28;20280;-83
2022/11/09 03:51:45;;;;;;;3.63;1.00;;;13.50;99.90;;;;;;5052053;28;20694;-83
2022/11/09 03:54:10;;;;;;;4.10;1.47;;;13.50;99.90;;;;;;5035711;28;20276;-83
2022/11/09 03:56:36;;;;;;;1.67;1.10;;;13.50;99.90;;;;;;5052537;28;20189;-83
2022/11/09 03:59:01;;;;;;;8.87;1.87;;;13.50;99.90;;;;;;5053370;28;20569;-83
2022/11/09 04:01:27;;;;;;;3.40;1.20;;;13.50;99.90;;;;;;5019560;28;20185;-83
2022/11/09 04:03:52;;;;;;;4.03;1.17;;;13.50;99.90;;;;;;5053314;28;20173;-83
2022/11/09 04:06:18;;;;;;;3.07;1.43;;;13.50;99.90;;;;;;5052493;28;20174;-83
2022/11/09 04:08:44;;;;;;;3.83;1.10;;;13.40;99.90;;;;;;5018958;28;20220;-83
2022/11/09 04:11:09;;;;;;;4.70;1.20;;;13.40;99.90;;;;;;5035296;28;20189;-83
2022/11/09 04:13:35;;;;;;;3.67;1.70;;;13.40;99.90;;;;;;5052158;28;20572;-83
2022/11/09 04:16:00;;;;;;;3.13;1.30;;;13.40;99.90;;;;;;5035457;28;20272;-83
2022/11/09 04:18:26;;;;;;;5.10;1.40;;;13.40;99.90;;;;;;5035994;28;20701;-83
2022/11/09 04:20:51;;;;;;;1.03;0.90;;;13.40;99.90;;;;;;5051813;28;20174;-83
2022/11/09 04:23:17;;;;;;;5.20;1.30;;;13.40;99.90;;;;;;5035466;28;20257;-83
2022/11/09 04:25:42;;;;;;;3.37;1.30;;;13.40;99.90;;;;;;5051982;28;20197;-83
2022/11/09 04:28:11;;;;;;;3.90;1.30;;;13.40;99.90;;;;;;5035285;28;20209;-83
2022/11/09 04:30:37;;;;;;;5.47;1.27;;;13.40;99.90;;;;;;5051972;28;20182;-83
2022/11/09 04:33:04;;;;;;;3.13;1.90;;;13.40;99.90;;;;;;5051656;28;20419;-83
2022/11/09 04:35:31;;;;;;;3.07;1.33;;;13.40;99.90;;;;;;5054257;28;20383;-83
2022/11/09 04:38:00;;;;;;;5.10;1.20;;;13.30;99.90;;;;;;5055624;28;20438;-83
2022/11/09 04:40:27;;;;;;;3.20;1.20;;;13.40;99.90;;;;;;5057347;28;20408;-83
2022/11/09 04:42:53;;;;;;;4.50;1.23;;;13.30;99.90;;;;;;5039259;28;20442;-83
2022/11/09 04:45:20;;;;;;;5.13;1.50;;;13.30;99.90;;;;;;5055487;28;20972;-83
2022/11/09 04:47:46;;;;;;;3.57;1.20;;;13.40;99.90;;;;;;5056925;28;20550;-83
2022/11/09 04:50:12;;;;;;;2.07;1.20;;;13.40;99.90;;;;;;5023016;28;20538;-83
2022/11/09 04:52:37;;;;;;;3.30;1.40;;;13.40;99.90;;;;;;5056210;28;20189;-83
2022/11/09 04:55:04;;;;;;;2.30;1.53;;;13.40;99.90;;;;;;5038870;28;20205;-83
2022/11/09 04:57:29;;;;;;;3.60;1.23;;;13.40;99.90;;;;;;5057220;28;20185;-83
2022/11/09 04:59:55;;;;;;;3.90;1.63;;;13.40;99.90;;;;;;5038766;28;20403;-82
2022/11/09 05:02:20;;;;;;;5.20;1.73;;;13.40;99.90;;;;;;5055422;28;20184;-85
2022/11/09 05:04:46;;;;;;;4.03;1.47;;;13.40;99.90;;;;;;5038852;28;20208;-83
2022/11/09 05:07:11;;;;;;;4.53;1.63;;;13.40;99.90;;;;;;5054925;28;20602;-84
2022/11/09 05:09:37;;;;;;;5.63;2.07;;;13.40;99.90;;;;;;5038640;28;20217;-81
2022/11/09 05:12:03;;;;;;;10.40;2.50;;;13.40;99.90;;;;;;5038656;28;20182;-84
2022/11/09 05:14:28;;;;;;;6.03;2.50;;;13.40;99.90;;;;;;5038515;28;20190;-82
2022/11/09 05:16:54;;;;;;;10.60;2.43;;;13.40;99.90;;;;;;5054830;28;20178;-81
2022/11/09 05:19:19;;;;;;;5.90;1.83;;;13.40;99.90;;;;;;5038703;28;20192;-83
2022/11/09 05:21:45;;;;;;;2.20;1.20;;;13.40;99.90;;;;;;5055395;28;20182;-84
2022/11/09 05:24:10;;;;;;;6.53;1.53;;;13.50;99.90;;;;;;5055052;28;20209;-82
2022/11/09 05:26:38;;;;;;;5.27;1.50;;;13.50;99.90;;;;;;5038243;28;20181;-81
2022/11/09 05:29:06;;;;;;;3.30;1.30;;;13.60;99.90;;;;;;5038102;28;20213;-82
2022/11/09 05:31:32;;;;;;;1.53;0.87;;;13.60;99.90;;;;;;5066694;28;20844;-82
2022/11/09 05:33:59;;;;;;;2.40;1.10;;;13.70;99.90;;;;;;5074835;28;20473;-82
2022/11/09 05:36:26;;;;;;;6.70;1.30;;;13.70;99.90;;;;;;5074670;28;20511;-82
2022/11/09 05:38:52;;;;;;;3.00;1.03;;;13.70;99.90;;;;;;5057926;28;20873;-83
2022/11/09 05:41:18;;;;;;;3.50;1.30;;;13.80;99.90;;;;;;5074524;28;20431;-82
2022/11/09 05:43:44;;;;;;;2.37;1.30;;;13.80;99.90;;;;;;5057867;28;20423;-83
2022/11/09 05:46:11;;;;;;;1.40;1.07;;;13.90;99.90;;;;;;5056646;28;20244;-83
2022/11/09 05:48:37;;;;;;;3.80;2.10;;;13.90;99.90;;;;;;5058057;28;20467;-84
2022/11/09 05:51:04;;;;;;;5.10;1.70;;;13.90;99.90;;;;;;5057747;28;20390;-83
2022/11/09 05:53:30;;;;;;;5.10;1.50;;;14.00;99.90;;;;;;5058237;28;20570;-83
2022/11/09 05:56:00;;;;;;;4.47;1.40;;;13.90;99.90;;;;;;5076152;28;20403;-82
2022/11/09 05:58:25;;;;;;;2.80;1.27;;;13.60;99.90;;;;;;5074985;28;20426;-82
2022/11/09 06:00:51;;;;;;;4.90;1.53;;;13.30;99.90;;;;;;5047912;28;20503;-83
2022/11/09 06:03:16;;;;;;;5.10;1.67;;;13.10;99.90;;;;;;5037751;28;20178;-82
2022/11/09 06:05:42;;;;;;;4.03;1.40;;;13.00;99.90;;;;;;5038072;28;20186;-83
2022/11/09 06:08:13;;;;;;;3.73;1.10;;;13.00;99.90;;;;;;5054021;28;20547;-82
2022/11/09 06:10:40;;;;;;;7.53;1.53;;;12.90;99.90;;;;;;5054180;28;20177;-81
2022/11/09 06:13:06;;;;;;;4.57;2.40;;;12.70;99.90;;;;;;5055456;28;20412;-81
2022/11/09 06:15:32;;;;;;;6.17;1.47;;;12.40;99.90;;;;;;5054413;28;20440;-82
2022/11/09 06:17:58;;;;;;;8.13;1.43;;;12.30;99.90;;;;;;5037665;28;20431;-82
2022/11/09 06:20:26;;;;;;;1.40;1.00;;;12.20;99.90;;;;;;5056280;28;20667;-81
2022/11/09 06:23:01;;;;;;;8.00;1.80;;;12.10;99.90;;;;;;5056052;28;20411;-81
2022/11/09 06:25:27;;;;;;;7.37;1.50;;;12.10;99.90;;;;;;5054572;28;20466;-82
2022/11/09 06:27:54;;;;;;;6.00;1.57;;;12.00;99.90;;;;;;5053854;28;20472;-82
2022/11/09 06:30:21;;;;;;;10.43;2.17;;;12.00;99.90;;;;;;5055481;28;20447;-82
2022/11/09 06:32:46;;;;;;;4.67;1.20;;;12.00;99.90;;;;;;5036959;28;20902;-82
2022/11/09 06:35:13;;;;;;;5.40;1.77;;;11.90;99.90;;;;;;5036949;28;20423;-82
2022/11/09 06:37:38;;;;;;;4.00;1.17;;;11.90;99.90;;;;;;5036996;28;20181;-82
2022/11/09 06:40:06;;;;;;;4.10;1.13;;;11.90;99.90;;;;;;5053234;28;20412;-83
2022/11/09 06:42:31;;;;;;;2.23;1.17;;;11.90;99.90;;;;;;5053074;28;20643;-82
2022/11/09 06:44:57;;;;;;;2.43;1.00;;;11.90;99.90;;;;;;5019468;28;20480;-83
2022/11/09 06:47:22;;;;;;;4.43;1.47;;;11.90;99.90;;;;;;5053436;28;20185;-82
2022/11/09 06:49:48;;;;;;;4.93;2.80;;;11.90;99.90;;;;;;5036686;28;20221;-82
2022/11/09 06:52:13;;;;;;;5.13;1.70;;;11.90;99.90;;;;;;5052805;28;20637;-82
2022/11/09 06:54:39;;;;;;;3.63;1.40;;;11.90;99.90;;;;;;5054971;28;20265;-82
2022/11/09 06:57:05;;;;;;;3.70;1.40;;;11.90;99.90;;;;;;5053844;28;20178;-83
2022/11/09 06:59:30;;;;;;;6.00;2.00;;;11.90;99.90;;;;;;5036268;28;20583;-82
2022/11/09 07:01:56;;;;;;;15.37;3.60;;;11.80;99.90;;;;;;5051931;28;20468;-84
2022/11/09 07:04:21;;;;;;;5.57;2.10;;;11.80;99.90;;;;;;5053292;28;20541;-81
2022/11/09 07:06:47;;;;;;;6.60;2.57;;;11.80;99.90;;;;;;5036182;28;20193;-81
2022/11/09 07:09:13;;;;;;;2.67;2.17;;;11.90;99.90;;;;;;5051593;28;20251;-81
2022/11/09 07:11:38;;;;;;;9.30;2.60;;;11.90;99.90;;;;;;5020098;28;20181;-81
2022/11/09 07:14:04;;;;;;;6.73;2.27;;;11.80;99.90;;;;;;5050557;28;20657;-80
2022/11/09 07:16:30;;;;;;;3.40;2.30;;;11.80;99.90;;;;;;5026838;28;20192;-80
2022/11/09 07:18:56;;;;;;;4.27;2.20;;;11.80;99.90;;;;;;5052808;28;20455;-83
2022/11/09 07:21:21;;;;;;;3.40;2.10;;;11.70;99.90;;;;;;5035398;28;20494;-82
2022/11/09 07:23:48;;;;;;;6.83;2.43;;;11.70;99.90;;;;;;5036033;28;20177;-82
2022/11/09 07:26:14;;;;;;;8.30;2.97;;;11.70;99.90;;;;;;5054186;28;20177;-82
2022/11/09 07:28:40;;;;;;;6.80;2.87;;;11.60;99.90;;;;;;5053691;28;20521;-84
2022/11/09 07:31:07;;;;;;;6.47;2.97;;;11.60;99.90;;;;;;5051435;28;20419;-84
2022/11/09 07:33:32;;;;;;;5.77;2.10;;;11.50;99.90;;;;;;5047583;28;20793;-84
2022/11/09 07:36:00;;;;;;;4.37;2.53;;;11.50;99.90;;;;;;5015964;28;20493;-84
2022/11/09 07:38:27;;;;;;;4.70;1.73;;;11.60;99.90;;;;;;5032356;28;20193;-84
2022/11/09 07:40:53;;;;;;;4.57;1.53;;;11.50;99.90;;;;;;5033067;28;20409;-84
2022/11/09 07:43:19;;;;;;;7.33;2.33;;;11.50;99.90;;;;;;5033354;28;20403;-84
2022/11/09 07:45:45;;;;;;;7.13;3.20;;;11.50;99.90;;;;;;5033041;28;20325;-84
2022/11/09 07:48:11;;;;;;;4.90;2.30;;;11.50;99.90;;;;;;5015738;28;20881;-84
2022/11/09 07:50:39;;;;;;;5.17;1.73;;;11.50;99.90;;;;;;5032333;28;20208;-84
2022/11/09 07:53:08;;;;;;;12.80;2.17;;;11.50;99.90;;;;;;5016127;28;20451;-83
2022/11/09 07:55:34;;;;;;;3.67;1.97;;;11.50;99.90;;;;;;5032093;28;20328;-84
2022/11/09 07:58:03;;;;;;;6.70;2.17;;;11.50;99.90;;;;;;5031875;28;20417;-84
2022/11/09 08:00:31;;;;;;;8.38;1.98;;;11.40;99.90;;;;;;5032018;28;20417;-84
2022/11/09 08:02:56;;;;;;;3.60;1.50;;;11.50;99.90;;;;;;5033327;28;20193;-84
2022/11/09 08:05:22;;;;;;;3.40;1.70;;;11.50;99.90;;;;;;5033249;28;20408;-84
2022/11/09 08:07:52;;;;;;;3.63;1.80;;;11.60;99.90;;;;;;5031966;28;20687;-84
2022/11/09 08:10:18;;;;;;;7.60;2.00;;;11.60;99.90;;;;;;5031805;28;20405;-83
2022/11/09 08:12:43;;;;;;;8.00;2.37;;;11.70;99.90;;;;;;4999284;28;20459;-84
2022/11/09 08:15:09;;;;;;;10.07;3.43;;;11.70;99.90;;;;;;5015333;28;20212;-84
2022/11/09 08:17:35;;;;;;;4.50;2.50;;;11.70;99.90;;;;;;5016040;28;20236;-84
2022/11/09 08:20:01;;;;;;;9.97;3.23;;;11.80;99.90;;;;;;5015563;28;20908;-83
2022/11/09 08:22:26;;;;;;;5.67;2.43;;;11.80;99.90;;;;;;5015570;28;20182;-84
2022/11/09 08:24:52;;;;;;;10.33;2.80;;;11.90;99.90;;;;;;5032184;28;20409;-83
2022/11/09 08:27:17;;;;;;;7.03;3.33;;;11.90;99.90;;;;;;5031714;28;20546;-84
2022/11/09 08:29:44;;;;;;;5.60;2.40;;;11.90;99.90;;;;;;5033192;28;20297;-83
2022/11/09 08:32:09;;;;;;;7.20;2.10;;;12.00;99.90;;;;;;5033283;28;20170;-84
2022/11/09 08:34:35;;;;;;;5.60;3.13;;;12.00;99.90;;;;;;5015588;28;20427;-84
2022/11/09 08:37:01;;;;;;;4.30;2.00;;;12.10;99.90;;;;;;5015652;28;20274;-84
2022/11/09 08:39:26;;;;;;;4.73;2.47;;;12.20;99.90;;;;;;5015263;28;20190;-84
2022/11/09 08:41:52;;;;;;;5.57;2.37;;;12.20;99.90;;;;;;4999279;28;20421;-83
2022/11/09 08:44:18;;;;;;;8.80;2.50;;;12.20;99.90;;;;;;5031440;28;20209;-84
2022/11/09 08:46:43;;;;;;;8.20;4.30;;;12.20;99.90;;;;;;4999247;28;20328;-84
2022/11/09 08:49:09;;;;;;;12.43;4.73;;;12.30;99.90;;;;;;5015278;28;20259;-83
2022/11/09 08:51:35;;;;;;;13.40;5.20;;;12.40;99.90;;;;;;4999395;28;20186;-84
2022/11/09 08:54:01;;;;;;;10.73;4.00;;;12.40;99.90;;;;;;5015722;28;20317;-83
2022/11/09 08:56:27;;;;;;;4.93;2.73;;;12.50;99.90;;;;;;5015360;28;20897;-83
2022/11/09 08:58:52;;;;;;;5.27;2.53;;;12.60;99.90;;;;;;5032598;28;20179;-83
2022/11/09 09:01:18;;;;;;;8.00;2.53;;;12.60;99.90;;;;;;5015452;28;20185;-83
2022/11/09 09:03:45;;;;;;;3.73;2.30;;;12.80;99.90;;;;;;5031967;28;20186;-82
2022/11/09 09:06:11;;;;;;;7.63;2.67;;;12.80;99.90;;;;;;5015030;28;20206;-82
2022/11/09 09:08:37;;;;;;;8.80;2.90;;;13.00;99.90;;;;;;5031561;28;20488;-81
2022/11/09 09:11:03;;;;;;;3.43;1.60;;;13.00;99.90;;;;;;5033031;28;20179;-83
2022/11/09 09:13:30;;;;;;;6.60;2.33;;;13.10;99.90;;;;;;5015180;28;20198;-84
2022/11/09 09:15:55;;;;;;;8.13;3.10;;;13.20;99.90;;;;;;5032766;28;20417;-84
2022/11/09 09:18:21;;;;;;;5.87;2.30;;;13.30;99.90;;;;;;5032817;28;20471;-84
2022/11/09 09:20:46;;;;;;;9.67;2.90;;;13.40;99.90;;;;;;4999752;28;20210;-84
2022/11/09 09:23:14;;;;;;;7.57;2.03;;;13.40;99.90;;;;;;5035858;28;20178;-84
2022/11/09 09:25:40;;;;;;;8.33;2.50;;;13.40;99.90;;;;;;5018934;28;20206;-84
2022/11/09 09:28:05;;;;;;;6.37;2.60;;;13.50;99.90;;;;;;5018211;28;20499;-84
2022/11/09 09:30:31;;;;;;;3.40;2.50;;;13.50;99.90;;;;;;5002049;28;20804;-84
2022/11/09 09:33:00;;;;;;;2.83;1.13;;;13.60;99.90;;;;;;5034825;28;20182;-85
2022/11/09 09:35:27;;;;;;;1.70;1.00;;;13.70;99.90;;;;;;5034369;28;20186;-84
2022/11/09 09:37:53;;;;;;;4.90;1.10;;;13.70;99.90;;;;;;5036111;28;20799;-85
2022/11/09 09:40:24;;;;;;;2.60;1.00;;;13.70;99.90;;;;;;5018099;28;20436;-85
2022/11/09 09:42:53;;;;;;;5.17;1.30;;;13.80;99.90;;;;;;5034830;28;20983;-86
2022/11/09 09:45:22;;;;;;;5.70;1.20;;;13.60;99.90;;;;;;5034309;28;20906;-85
2022/11/09 09:47:52;;;;;;;7.00;1.17;;;13.70;99.90;;;;;;5035980;28;20424;-86
2022/11/09 09:50:30;;;;;;;3.07;0.80;;;13.80;99.90;;;;;;5035891;28;20492;-86
2022/11/09 09:52:59;;;;;;;1.90;0.90;;;13.80;99.90;;;;;;5035845;28;20774;-86
2022/11/09 09:55:33;;;;;;;2.87;1.03;;;13.80;99.90;;;;;;5035619;28;20496;-85
2022/11/09 09:58:06;;;;;;;4.37;1.00;;;13.80;99.90;;;;;;5034630;28;20421;-86
2022/11/09 10:00:34;;;;;;;2.60;1.00;;;13.90;99.90;;;;;;5034416;28;20443;-85
2022/11/09 10:03:00;;;;;;;3.37;1.20;;;13.80;99.90;;;;;;5035471;28;20473;-85
2022/11/09 10:05:45;;;;;;;2.73;0.97;;;13.90;99.90;;;;;;5034152;28;21346;-84
2022/11/09 10:08:18;;;;;;;4.73;0.97;;;13.90;99.90;;;;;;5035279;28;20552;-85
2022/11/09 10:10:59;;;;;;;2.00;0.97;;;14.10;99.90;;;;;;5035621;28;20922;-85
2022/11/09 10:13:40;;;;;;;4.50;1.37;;;14.20;99.90;;;;;;5033695;28;20413;-84
2022/11/09 10:16:12;;;;;;;2.87;1.10;;;14.30;99.90;;;;;;5034001;28;20453;-84
2022/11/09 10:18:54;;;;;;;1.90;1.10;;;14.50;99.90;;;;;;5034015;28;20893;-84
2022/11/09 10:21:25;;;;;;;4.90;1.20;;;14.60;99.90;;;;;;5034889;28;20401;-84
2022/11/09 10:24:04;;;;;;;3.37;1.17;;;14.60;99.90;;;;;;5033879;28;20517;-84
2022/11/09 10:26:47;;;;;;;3.40;1.10;;;14.60;99.90;;;;;;5033736;28;20424;-84
2022/11/09 10:29:43;;;;;;;5.17;1.07;;;14.80;99.90;;;;;;5034631;28;20954;-84
2022/11/09 10:32:13;;;;;;;4.27;1.00;;;14.80;99.90;;;;;;5034519;28;20909;-84
2022/11/09 10:34:51;;;;;;;2.50;0.90;;;14.80;99.90;;;;;;5033845;28;20485;-84
2022/11/09 10:37:20;;;;;;;2.77;1.17;;;14.90;99.90;;;;;;5033530;28;20920;-83
2022/11/09 10:40:17;;;;;;;7.07;1.00;;;15.00;99.90;;;;;;5033482;28;20424;-84
2022/11/09 10:42:54;;;;;;;3.27;1.30;;;15.30;99.90;;;;;;5033714;28;20417;-84
2022/11/09 10:45:34;;;;;;;2.80;1.17;;;15.60;99.90;;;;;;5033158;28;20840;-84
2022/11/09 10:48:01;;;;;;;1.27;0.90;;;15.90;99.90;;;;;;5033705;28;20868;-84
2022/11/09 10:50:36;;;;;;;5.20;0.97;;;16.10;99.90;;;;;;5034333;28;20440;-84
2022/11/09 10:53:16;;;;;;;2.30;1.20;;;16.10;99.90;;;;;;5034233;28;20409;-84
2022/11/09 10:55:55;;;;;;;2.87;1.20;;;16.40;99.90;;;;;;5033438;28;20424;-85
2022/11/09 10:58:35;;;;;;;2.90;0.97;;;16.50;99.90;;;;;;5034106;28;20448;-84
2022/11/09 11:01:12;;;;;;;3.87;1.23;;;16.70;99.90;;;;;;5033193;28;20448;-84
2022/11/09 11:03:39;;;;;;;5.37;1.50;;;16.90;99.90;;;;;;5033074;28;20431;-84
2022/11/09 11:06:15;;;;;;;3.27;1.17;;;16.80;99.90;;;;;;5016732;28;20427;-85
2022/11/09 11:08:43;;;;;;;2.33;0.90;;;17.30;99.90;;;;;;5034395;28;20510;-84
2022/11/09 11:11:25;;;;;;;3.53;1.37;;;17.10;99.90;;;;;;5034257;28;20379;-83
2022/11/09 11:14:09;;;;;;;4.13;1.40;;;16.90;99.90;;;;;;5033421;28;20432;-85
2022/11/09 11:16:37;;;;;;;5.13;1.73;;;17.10;99.90;;;;;;5033297;28;20806;-85
2022/11/09 11:19:03;;;;;;;8.83;2.03;;;16.80;99.90;;;;;;5032731;28;20421;-85
2022/11/09 11:21:30;;;;;;;7.53;1.10;;;16.40;99.90;;;;;;5032472;28;20417;-85
2022/11/09 11:24:18;;;;;;;4.77;1.60;;;16.50;99.90;;;;;;5033836;28;20405;-85
2022/11/09 11:27:03;;;;;;;1.63;1.20;;;16.80;99.90;;;;;;5033022;28;20439;-85
2022/11/09 11:29:41;;;;;;;5.20;1.50;;;16.90;99.90;;;;;;5033825;28;20452;-84
2022/11/09 11:32:12;;;;;;;1.93;1.03;;;16.90;99.90;;;;;;5034126;28;20420;-83
2022/11/09 11:34:38;;;;;;;3.53;1.40;;;16.40;99.90;;;;;;5032582;28;20498;-84
2022/11/09 11:37:04;;;;;;;7.60;1.77;;;16.50;99.90;;;;;;5032627;28;20790;-84
2022/11/09 11:39:29;;;;;;;8.30;1.50;;;16.40;99.90;;;;;;5032225;28;20193;-83
2022/11/09 11:42:30;;;;;;;5.23;1.80;;;16.20;99.90;;;;;;5032420;28;20182;-83
2022/11/09 11:45:09;;;;;;;3.53;0.97;;;16.10;99.90;;;;;;5031439;28;20230;-83
2022/11/09 11:47:55;;;;;;;5.10;2.00;;;16.10;99.90;;;;;;5031964;28;20512;-83
2022/11/09 11:50:39;;;;;;;3.07;1.30;;;16.10;99.90;;;;;;5031223;28;20477;-83
2022/11/09 11:53:30;;;;;;;5.70;1.27;;;16.10;99.90;;;;;;5032621;28;20433;-83
2022/11/09 11:56:03;;;;;;;6.00;1.30;;;16.10;99.90;;;;;;5033415;28;20940;-83
2022/11/09 11:58:58;;;;;;;3.43;1.20;;;16.00;99.90;;;;;;5031987;28;20483;-84
2022/11/09 12:01:45;;;;;;;4.47;1.10;;;16.00;99.90;;;;;;5013757;28;20897;-84
2022/11/09 12:04:34;;;;;;;4.87;1.50;;;16.10;99.90;;;;;;5033743;28;20400;-84
2022/11/09 12:07:21;;;;;;;2.53;0.97;;;16.30;99.90;;;;;;5033542;28;20405;-84
2022/11/09 12:09:54;;;;;;;2.77;1.10;;;16.40;99.90;;;;;;5033305;28;20514;-83
2022/11/09 12:12:38;;;;;;;2.33;1.20;;;16.50;99.90;;;;;;5032217;28;20392;-84
2022/11/09 12:15:28;;;;;;;3.33;1.50;;;16.70;99.90;;;;;;5033140;28;20419;-84
2022/11/09 12:18:20;;;;;;;4.30;1.20;;;16.70;99.90;;;;;;5032361;28;20413;-83
2022/11/09 12:21:24;;;;;;;1.87;1.30;;;16.80;99.90;;;;;;5032041;28;20395;-83
2022/11/09 12:24:17;;;;;;;6.07;1.43;;;16.40;99.90;;;;;;5032696;28;20425;-83
2022/11/09 12:27:20;;;;;;;7.17;1.30;;;16.30;99.90;;;;;;5033487;28;20492;-84
2022/11/09 12:30:00;;;;;;;5.70;1.00;;;16.30;99.90;;;;;;5031678;28;20446;-84
2022/11/09 12:32:39;;;;;;;4.27;1.00;;;16.20;99.90;;;;;;5031819;28;20420;-84
2022/11/09 12:35:14;;;;;;;3.90;1.03;;;16.00;99.90;;;;;;5033261;28;20444;-84
2022/11/09 12:37:50;;;;;;;4.97;1.47;;;16.00;99.90;;;;;;5032943;28;20419;-84
2022/11/09 12:40:24;;;;;;;3.33;1.37;;;16.10;99.90;;;;;;5033428;28;20781;-83
2022/11/09 12:43:25;;;;;;;2.30;1.20;;;16.10;99.90;;;;;;5033156;28;20397;-83
2022/11/09 12:45:52;;;;;;;13.00;1.33;;;16.10;99.90;;;;;;5032697;28;20555;-83
2022/11/09 12:48:27;;;;;;;4.07;1.10;;;16.10;99.90;;;;;;5031378;28;20457;-83
2022/11/09 12:50:53;;;;;;;4.10;1.70;;;16.10;99.90;;;;;;5031750;28;20505;-84
2022/11/09 12:53:24;;;;;;;4.60;1.00;;;16.20;99.90;;;;;;5031683;28;20417;-82
2022/11/09 12:56:07;;;;;;;3.60;1.10;;;16.00;99.90;;;;;;5033790;28;20432;-83
2022/11/09 12:58:35;;;;;;;7.67;1.53;;;16.00;99.90;;;;;;5036555;28;20804;-83